createdAt,value
2018-10-18T00:01:36.281Z,46.13
2018-10-18T00:04:07.873Z,48.74
2018-10-18T00:06:38.549Z,56.20
2018-10-18T00:09:14.392Z,51.08
2018-10-18T00:11:44.233Z,50.93
2018-10-18T00:14:14.592Z,54.34
2018-10-18T00:16:44.477Z,52.20
2018-10-18T00:19:14.448Z,51.07
2018-10-18T00:21:44.646Z,52.83
2018-10-18T00:24:15.463Z,54.00
2018-10-18T00:26:46.440Z,61.68
2018-10-18T00:29:17.830Z,51.76
2018-10-18T00:31:48.762Z,52.03
2018-10-18T00:34:19.488Z,51.92
2018-10-18T00:36:50.731Z,53.92
2018-10-18T00:39:21.468Z,52.58
2018-10-18T00:41:52.864Z,51.94
2018-10-18T00:44:23.608Z,53.33
2018-10-18T00:46:54.486Z,46.92
2018-10-18T00:49:25.600Z,50.70
2018-10-18T00:51:56.601Z,50.10
2018-10-18T00:54:27.445Z,52.93
2018-10-18T00:56:58.884Z,55.46
2018-10-18T00:59:29.522Z,48.45
2018-10-18T01:02:01.304Z,48.15
2018-10-18T01:04:31.603Z,44.63
2018-10-18T01:07:02.440Z,46.02
2018-10-18T01:09:33.525Z,45.98
2018-10-18T01:12:04.472Z,48.25
2018-10-18T01:14:35.689Z,46.53
2018-10-18T01:17:06.919Z,47.30
2018-10-18T01:19:38.779Z,51.75
2018-10-18T01:22:08.800Z,50.00
2018-10-18T01:24:39.492Z,48.28
2018-10-18T01:27:11.209Z,48.90
2018-10-18T01:29:41.659Z,44.10
2018-10-18T01:32:12.650Z,47.98
2018-10-18T01:34:43.541Z,47.38
2018-10-18T01:37:14.517Z,47.65
2018-10-18T01:39:45.392Z,49.35
2018-10-18T01:42:16.844Z,48.46
2018-10-18T01:44:47.604Z,50.05
2018-10-18T01:47:18.514Z,56.53
2018-10-18T01:49:49.831Z,55.38
2018-10-18T01:52:20.650Z,51.35
2018-10-18T01:54:51.370Z,52.03
2018-10-18T01:57:22.862Z,49.60
2018-10-18T01:59:53.567Z,48.15
2018-10-18T02:02:24.456Z,51.00
2018-10-18T02:04:55.572Z,46.16
2018-10-18T02:07:27.089Z,50.26
2018-10-18T02:09:57.545Z,48.78
2018-10-18T02:12:28.381Z,49.38
2018-10-18T02:14:59.705Z,46.86
2018-10-18T02:17:31.019Z,49.73
2018-10-18T02:20:01.504Z,47.38
2018-10-18T02:22:32.589Z,50.48
2018-10-18T02:25:03.383Z,51.98
2018-10-18T02:27:34.624Z,55.08
2018-10-18T02:30:06.260Z,56.28
2018-10-18T02:32:37.832Z,51.78
2018-10-18T02:35:07.701Z,47.90
2018-10-18T02:37:38.842Z,53.00
2018-10-18T02:40:09.536Z,56.75
2018-10-18T02:42:40.785Z,49.66
2018-10-18T02:45:11.573Z,56.25
2018-10-18T02:47:42.981Z,50.28
2018-10-18T02:50:13.514Z,57.13
2018-10-18T02:52:44.865Z,52.06
2018-10-18T02:55:15.545Z,54.42
2018-10-18T02:57:46.807Z,54.03
2018-10-18T03:00:17.622Z,51.70
2018-10-18T03:02:48.664Z,51.33
2018-10-18T03:05:19.750Z,52.17
2018-10-18T03:07:50.610Z,52.53
2018-10-18T03:10:21.337Z,47.58
2018-10-18T03:12:52.777Z,51.68
2018-10-18T03:15:23.593Z,54.77
2018-10-18T03:17:54.484Z,48.75
2018-10-18T03:20:25.643Z,49.66
2018-10-18T03:22:56.473Z,52.27
2018-10-18T03:25:27.615Z,46.88
2018-10-18T03:27:58.502Z,50.50
2018-10-18T03:30:29.301Z,46.63
2018-10-18T03:33:00.805Z,44.10
2018-10-18T03:35:31.888Z,45.05
2018-10-18T03:38:02.778Z,46.75
2018-10-18T03:40:33.481Z,44.48
2018-10-18T03:43:04.676Z,46.90
2018-10-18T03:45:35.540Z,48.23
2018-10-18T03:48:06.689Z,44.48
2018-10-18T03:50:37.442Z,46.25
2018-10-18T03:53:08.726Z,46.28
2018-10-18T03:55:39.581Z,53.63
2018-10-18T03:58:10.613Z,51.18
2018-10-18T04:00:41.364Z,51.92
2018-10-18T04:03:12.946Z,47.34
2018-10-18T04:05:43.549Z,52.85
2018-10-18T04:08:14.512Z,54.20
2018-10-18T04:10:45.282Z,52.73
2018-10-18T04:13:17.313Z,50.44
2018-10-18T04:15:47.317Z,47.30
2018-10-18T04:18:18.811Z,49.82
2018-10-18T04:20:49.556Z,56.53
2018-10-18T04:23:25.237Z,47.88
2018-10-18T04:25:55.384Z,46.63
2018-10-18T04:28:25.112Z,48.95
2018-10-18T04:30:55.832Z,52.40
2018-10-18T04:33:25.561Z,50.47
2018-10-18T04:35:55.544Z,48.70
2018-10-18T04:38:26.691Z,51.42
2018-10-18T04:40:57.697Z,49.98
2018-10-18T04:43:28.454Z,50.12
2018-10-18T04:45:59.840Z,54.72
2018-10-18T04:48:30.749Z,51.75
2018-10-18T04:51:01.989Z,49.93
2018-10-18T04:53:32.769Z,46.55
2018-10-18T04:56:03.990Z,45.95
2018-10-18T04:58:34.629Z,46.37
2018-10-18T05:01:05.584Z,52.38
2018-10-18T05:03:36.448Z,48.10
2018-10-18T05:06:07.759Z,46.76
2018-10-18T05:08:38.471Z,48.05
2018-10-18T05:11:09.464Z,50.78
2018-10-18T05:13:40.301Z,44.65
2018-10-18T05:16:11.760Z,46.70
2018-10-18T05:18:42.487Z,52.93
2018-10-18T05:21:12.625Z,49.65
2018-10-18T05:23:43.413Z,61.05
2018-10-18T05:26:14.498Z,65.10
2018-10-18T05:28:45.854Z,67.64
2018-10-18T05:31:17.945Z,57.10
2018-10-18T05:33:48.248Z,59.53
2018-10-18T05:36:19.226Z,54.34
2018-10-18T05:38:49.634Z,53.48
2018-10-18T05:41:20.409Z,52.08
2018-10-18T05:43:51.868Z,59.56
2018-10-18T05:46:22.996Z,53.75
2018-10-18T05:48:53.666Z,53.90
2018-10-18T05:51:24.705Z,53.15
2018-10-18T05:53:55.567Z,60.23
2018-10-18T05:56:26.550Z,60.78
2018-10-18T05:58:57.385Z,59.90
2018-10-18T06:01:28.914Z,59.22
2018-10-18T06:03:59.721Z,56.98
2018-10-18T06:06:30.628Z,57.88
2018-10-18T06:09:01.353Z,56.88
2018-10-18T06:11:33.688Z,52.78
2018-10-18T06:14:03.520Z,56.90
2018-10-18T06:16:34.401Z,59.48
2018-10-18T06:19:05.711Z,55.34
2018-10-18T06:21:37.562Z,58.84
2018-10-18T06:24:07.411Z,61.25
2018-10-18T06:26:38.635Z,56.18
2018-10-18T06:29:09.536Z,57.93
2018-10-18T06:31:41.249Z,57.45
2018-10-18T06:34:11.749Z,58.16
2018-10-18T06:36:42.638Z,52.03
2018-10-18T06:39:13.819Z,56.20
2018-10-18T06:41:44.711Z,57.17
2018-10-18T06:44:15.461Z,58.05
2018-10-18T06:46:46.958Z,55.30
2018-10-18T06:49:17.706Z,56.30
2018-10-18T06:51:48.787Z,53.80
2018-10-18T06:54:19.742Z,55.10
2018-10-18T06:56:50.904Z,50.67
2018-10-18T06:59:21.657Z,60.12
2018-10-18T07:01:54.430Z,64.20
2018-10-18T07:04:24.124Z,58.63
2018-10-18T07:06:54.632Z,59.95
2018-10-18T07:09:25.393Z,54.38
2018-10-18T07:11:56.620Z,58.76
2018-10-18T07:14:27.415Z,64.77
2018-10-18T07:16:58.592Z,63.80
2018-10-18T07:19:29.396Z,61.42
2018-10-18T07:22:00.899Z,68.34
2018-10-18T07:24:31.837Z,72.03
2018-10-18T07:27:03.160Z,69.90
2018-10-18T07:42:40.727Z,86.93
2018-10-18T07:45:11.736Z,103.87
2018-10-18T07:47:41.873Z,99.07
2018-10-18T07:50:12.161Z,101.17
2018-10-18T07:52:41.915Z,97.70
2018-10-18T07:55:11.947Z,91.43
2018-10-18T07:57:41.917Z,92.50
2018-10-18T08:00:14.885Z,83.07
2018-10-18T08:02:45.380Z,68.83
2018-10-18T08:05:15.594Z,76.20
2018-10-18T08:07:45.584Z,73.77
2018-10-18T08:10:19.512Z,64.77
2018-10-18T08:12:49.729Z,66.53
2018-10-18T08:15:19.843Z,67.47
2018-10-18T08:17:49.634Z,68.40
2018-10-18T08:20:19.586Z,66.23
2018-10-18T08:22:49.525Z,66.87
2018-10-18T08:25:19.318Z,71.15
2018-10-18T08:27:49.589Z,63.15
2018-10-18T08:30:19.554Z,64.83
2018-10-18T08:32:49.712Z,73.23
2018-10-18T08:35:23.556Z,74.67
2018-10-18T08:37:53.925Z,67.37
2018-10-18T08:40:23.899Z,66.90
2018-10-18T08:42:53.934Z,62.03
2018-10-18T08:45:23.659Z,59.37
2018-10-18T08:47:53.600Z,64.73
2018-10-18T08:50:23.757Z,60.63
2018-10-18T08:52:53.574Z,54.87
2018-10-18T08:55:23.535Z,56.47
2018-10-18T08:57:53.546Z,55.10
2018-10-18T09:00:23.734Z,57.50
2018-10-18T09:02:53.576Z,67.13
2018-10-18T09:05:23.548Z,55.10
2018-10-18T09:07:53.660Z,58.43
2018-10-18T09:10:23.531Z,52.77
2018-10-18T09:12:53.851Z,54.40
2018-10-18T09:15:23.738Z,54.83
2018-10-18T09:17:53.562Z,53.27
2018-10-18T09:20:23.526Z,52.33
2018-10-18T09:22:53.572Z,51.13
2018-10-18T09:25:23.417Z,55.93
2018-10-18T09:27:53.457Z,52.13
2018-10-18T09:30:23.671Z,54.60
2018-10-18T09:32:53.542Z,54.63
2018-10-18T09:35:23.572Z,51.40
2018-10-18T09:37:53.540Z,52.10
2018-10-18T09:40:23.647Z,45.23
2018-10-18T09:42:53.625Z,46.87
2018-10-18T09:45:23.502Z,44.80
2018-10-18T09:47:53.738Z,47.30
2018-10-18T09:50:23.708Z,43.37
2018-10-18T09:52:53.596Z,46.03
2018-10-18T09:55:23.704Z,47.67
2018-10-18T09:57:53.693Z,51.17
2018-10-18T10:00:28.634Z,49.73
2018-10-18T10:03:03.382Z,44.30
2018-10-18T10:05:33.448Z,45.28
2018-10-18T10:08:03.521Z,45.03
2018-10-18T10:10:33.685Z,51.53
2018-10-18T10:13:03.609Z,49.57
2018-10-18T10:15:33.655Z,48.27
2018-10-18T10:18:03.888Z,52.77
2018-10-18T10:20:33.677Z,50.17
2018-10-18T10:23:04.369Z,40.60
2018-10-18T10:25:34.401Z,43.00
2018-10-18T10:28:04.657Z,42.03
2018-10-18T10:30:34.529Z,49.50
2018-10-18T10:33:04.903Z,45.93
2018-10-18T10:35:34.948Z,38.93
2018-10-18T10:38:04.932Z,38.70
2018-10-18T10:40:34.717Z,49.73
2018-10-18T10:43:04.625Z,47.60
2018-10-18T10:45:34.551Z,38.47
2018-10-18T10:48:04.569Z,38.27
2018-10-18T10:50:34.545Z,44.70
2018-10-18T10:53:04.597Z,39.97
2018-10-18T10:55:34.539Z,37.03
2018-10-18T10:58:04.644Z,37.90
2018-10-18T11:01:10.875Z,37.67
2018-10-18T11:03:41.801Z,35.40
2018-10-18T11:06:12.083Z,37.13
2018-10-18T11:08:42.337Z,37.43
2018-10-18T11:11:13.217Z,32.75
2018-10-18T11:13:42.968Z,34.50
2018-10-18T11:16:12.875Z,35.70
2018-10-18T11:18:43.229Z,31.63
2018-10-18T11:21:14.620Z,36.23
2018-10-18T11:23:44.659Z,29.70
2018-10-18T11:26:14.670Z,34.30
2018-10-18T11:28:44.524Z,29.77
2018-10-18T11:31:14.618Z,28.93
2018-10-18T11:33:44.531Z,31.43
2018-10-18T11:36:14.770Z,30.43
2018-10-18T11:38:44.782Z,35.23
2018-10-18T11:41:14.593Z,27.93
2018-10-18T11:43:44.477Z,31.37
2018-10-18T11:46:14.485Z,25.87
2018-10-18T11:48:44.702Z,28.73
2018-10-18T11:51:14.448Z,32.17
2018-10-18T11:53:44.659Z,28.30
2018-10-18T11:56:14.717Z,34.60
2018-10-18T11:58:44.617Z,29.27
2018-10-18T12:01:15.224Z,30.23
2018-10-18T12:03:45.337Z,31.87
2018-10-18T12:06:15.314Z,25.70
2018-10-18T12:08:44.030Z,25.70
2018-10-18T12:11:14.155Z,24.23
2018-10-18T12:13:44.389Z,27.10
2018-10-18T12:16:14.380Z,22.10
2018-10-18T12:18:44.464Z,24.07
2018-10-18T12:21:14.475Z,23.37
2018-10-18T12:23:44.689Z,22.57
2018-10-18T12:26:14.542Z,21.03
2018-10-18T12:28:44.481Z,23.33
2018-10-18T12:31:14.525Z,23.00
2018-10-18T12:33:44.500Z,23.80
2018-10-18T12:36:14.705Z,18.55
2018-10-18T12:38:44.929Z,23.20
2018-10-18T12:41:15.646Z,21.77
2018-10-18T12:43:45.674Z,25.70
2018-10-18T12:46:15.448Z,28.23
2018-10-18T12:48:45.573Z,23.17
2018-10-18T12:51:16.443Z,22.27
2018-10-18T12:53:47.117Z,27.07
2018-10-18T12:56:18.248Z,20.67
2018-10-18T12:58:49.206Z,18.63
2018-10-18T13:01:19.701Z,21.70
2018-10-18T13:03:50.029Z,22.93
2018-10-18T13:06:20.459Z,20.00
2018-10-18T13:08:51.489Z,26.37
2018-10-18T13:11:22.273Z,18.83
2018-10-18T13:13:52.551Z,20.87
2018-10-18T13:16:23.096Z,23.13
2018-10-18T13:18:53.611Z,25.13
2018-10-18T13:21:24.159Z,17.87
2018-10-18T13:23:54.436Z,18.40
2018-10-18T13:26:25.226Z,22.47
2018-10-18T13:28:55.603Z,21.27
2018-10-18T13:31:26.318Z,28.73
2018-10-18T13:33:56.716Z,21.70
2018-10-18T13:36:26.616Z,23.23
2018-10-18T13:38:56.570Z,19.90
2018-10-18T13:41:26.858Z,26.83
2018-10-18T13:43:56.711Z,20.53
2018-10-18T13:46:26.538Z,23.23
2018-10-18T13:48:56.574Z,23.70
2018-10-18T13:51:26.595Z,20.43
2018-10-18T13:53:56.624Z,22.20
2018-10-18T13:56:26.650Z,22.67
2018-10-18T13:58:56.462Z,22.03
2018-10-18T14:01:27.018Z,18.40
2018-10-18T14:03:56.802Z,19.37
2018-10-18T14:06:26.769Z,22.37
2018-10-18T14:08:56.618Z,19.93
2018-10-18T14:11:26.477Z,20.50
2018-10-18T14:13:56.618Z,23.47
2018-10-18T14:16:26.608Z,18.00
2018-10-18T14:18:56.468Z,21.70
2018-10-18T14:21:26.613Z,26.23
2018-10-18T14:23:56.506Z,21.37
2018-10-18T14:26:26.626Z,19.10
2018-10-18T14:28:56.940Z,18.23
2018-10-18T14:31:27.170Z,16.93
2018-10-18T14:33:57.117Z,16.87
2018-10-18T14:36:26.842Z,17.57
2018-10-18T14:38:56.629Z,24.07
2018-10-18T14:41:26.945Z,23.23
2018-10-18T14:43:57.495Z,17.70
2018-10-18T14:46:27.507Z,20.68
2018-10-18T14:48:57.665Z,17.83
2018-10-18T14:51:27.623Z,18.30
2018-10-18T14:53:57.601Z,18.47
2018-10-18T14:56:27.405Z,26.20
2018-10-18T14:58:57.239Z,17.85
2018-10-18T15:01:27.131Z,21.47
2018-10-18T15:03:56.846Z,20.20
2018-10-18T15:06:26.777Z,19.27
2018-10-18T15:08:56.874Z,22.27
2018-10-18T15:11:26.813Z,24.67
2018-10-18T15:13:56.719Z,21.43
2018-10-18T15:16:27.265Z,17.44
2018-10-18T15:18:57.051Z,16.10
2018-10-18T15:21:27.495Z,18.83
2018-10-18T15:23:57.256Z,18.70
2018-10-18T15:26:28.130Z,24.45
2018-10-18T15:28:59.071Z,17.73
2018-10-18T15:31:29.967Z,23.80
2018-10-18T15:34:01.474Z,20.72
2018-10-18T15:36:32.129Z,25.48
2018-10-18T15:39:03.699Z,23.46
2018-10-18T15:41:34.424Z,23.26
2018-10-18T15:44:05.441Z,24.82
2018-10-18T15:46:36.344Z,19.02
2018-10-18T15:49:06.811Z,21.37
2018-10-18T15:51:42.170Z,21.25
2018-10-18T15:54:12.736Z,24.60
2018-10-18T15:56:43.293Z,25.23
2018-10-18T16:11:30.381Z,34.03
2018-10-18T16:14:00.974Z,32.13
2018-10-18T16:16:31.172Z,26.57
2018-10-18T16:19:01.011Z,25.50
2018-10-18T16:21:31.064Z,33.63
2018-10-18T16:24:00.854Z,26.33
2018-10-18T16:26:31.154Z,36.37
2018-10-18T16:29:01.495Z,38.00
2018-10-18T16:31:31.836Z,33.67
2018-10-18T16:34:01.852Z,35.90
2018-10-18T16:36:32.056Z,28.93
2018-10-18T16:39:02.118Z,35.30
2018-10-18T16:41:32.759Z,23.15
2018-10-18T16:44:02.779Z,22.03
2018-10-18T16:46:32.954Z,24.27
2018-10-18T16:49:03.356Z,22.15
2018-10-18T16:51:33.130Z,25.53
2018-10-18T16:54:03.457Z,24.80
2018-10-18T16:56:33.453Z,27.63
2018-10-18T17:01:39.421Z,24.63
2018-10-18T17:04:09.398Z,28.30
2018-10-18T17:06:39.417Z,22.90
2018-10-18T17:09:11.076Z,29.70
2018-10-18T17:11:41.568Z,30.08
2018-10-18T17:14:12.325Z,39.20
2018-10-18T17:16:42.985Z,39.30
2018-10-18T17:19:12.948Z,38.85
2018-10-18T17:24:18.816Z,39.20
2018-10-18T17:26:48.883Z,40.13
2018-10-18T17:29:19.613Z,54.08
2018-10-18T17:31:54.236Z,39.37
2018-10-18T17:37:00.437Z,41.60
2018-10-18T17:39:31.418Z,44.13
2018-10-18T17:42:01.786Z,43.87
2018-10-18T17:44:31.809Z,49.13
2018-10-18T17:47:11.959Z,46.00
2018-10-18T17:49:41.917Z,55.33
2018-10-18T17:52:11.992Z,51.63
2018-10-18T17:54:42.008Z,42.30
2018-10-18T17:57:11.877Z,46.93
2018-10-18T17:59:47.004Z,46.23
2018-10-18T18:02:18.113Z,40.93
2018-10-18T18:04:49.613Z,43.23
2018-10-18T18:07:24.929Z,38.20
2018-10-18T18:09:55.078Z,40.00
2018-10-18T18:12:25.149Z,40.47
2018-10-18T18:14:56.023Z,41.17
2018-10-18T18:17:29.222Z,39.97
2018-10-18T18:19:59.640Z,51.40
2018-10-18T18:22:33.956Z,39.87
2018-10-18T18:25:06.406Z,42.07
2018-10-18T18:27:36.566Z,43.07
2018-10-18T18:30:10.082Z,38.67
2018-10-18T18:32:41.001Z,39.13
2018-10-18T18:35:11.153Z,39.57
2018-10-18T18:37:41.098Z,36.37
2018-10-18T18:40:16.975Z,46.63
2018-10-18T18:42:47.034Z,39.70
2018-10-18T18:45:24.231Z,33.47
2018-10-18T18:47:56.122Z,40.92
2018-10-18T18:50:26.200Z,35.87
2018-10-18T18:52:56.136Z,37.60
2018-10-18T18:55:26.893Z,42.37
2018-10-18T18:58:02.256Z,37.77
2018-10-18T19:00:32.934Z,31.47
2018-10-18T19:03:02.865Z,43.00
2018-10-18T19:05:33.053Z,32.03
2018-10-18T19:08:03.210Z,33.93
2018-10-18T19:10:33.126Z,33.13
2018-10-18T19:13:02.968Z,32.57
2018-10-18T19:15:33.234Z,34.37
2018-10-18T19:18:03.117Z,32.87
2018-10-18T19:20:33.428Z,31.50
2018-10-18T19:23:03.834Z,39.92
2018-10-18T19:25:34.092Z,43.13
2018-10-18T19:28:04.142Z,41.00
2018-10-18T19:30:33.983Z,35.97
2018-10-18T19:33:03.910Z,37.47
2018-10-18T19:35:33.785Z,32.87
2018-10-18T19:38:05.636Z,37.27
2018-10-18T19:40:40.870Z,33.60
2018-10-18T19:43:10.836Z,35.80
2018-10-18T19:45:40.975Z,34.83
2018-10-18T19:48:11.016Z,35.63
2018-10-18T19:50:41.005Z,48.10
2018-10-18T19:53:11.190Z,33.20
2018-10-18T19:55:41.093Z,39.90
2018-10-18T19:58:11.010Z,42.43
2018-10-18T20:00:54.662Z,51.67
2018-10-18T20:03:24.721Z,42.07
2018-10-18T20:05:54.970Z,45.90
2018-10-18T20:08:24.806Z,51.20
2018-10-18T20:10:54.882Z,57.77
2018-10-18T20:13:24.746Z,49.23
2018-10-18T20:15:54.767Z,42.90
2018-10-18T20:18:24.865Z,47.47
2018-10-18T20:20:55.138Z,41.53
2018-10-18T20:23:25.179Z,45.47
2018-10-18T20:25:55.339Z,47.70
2018-10-18T20:28:25.157Z,52.40
2018-10-18T20:30:55.601Z,53.17
2018-10-18T20:33:25.978Z,54.80
2018-10-18T20:35:55.943Z,56.50
2018-10-18T20:38:25.758Z,51.53
2018-10-18T20:40:55.817Z,49.70
2018-10-18T20:43:25.774Z,45.07
2018-10-18T20:45:56.057Z,44.10
2018-10-18T20:48:25.973Z,46.77
2018-10-18T20:50:55.849Z,46.50
2018-10-18T20:53:25.717Z,47.40
2018-10-18T20:55:55.705Z,45.80
2018-10-18T20:58:25.671Z,42.63
2018-10-18T21:00:56.039Z,49.27
2018-10-18T21:03:25.865Z,51.33
2018-10-18T21:05:56.157Z,53.40
2018-10-18T21:08:26.224Z,58.13
2018-10-18T21:10:56.159Z,51.47
2018-10-18T21:13:26.275Z,59.33
2018-10-18T21:15:56.086Z,58.60
2018-10-18T21:18:25.863Z,65.77
2018-10-18T21:20:55.864Z,66.30
2018-10-18T21:23:25.932Z,63.53
2018-10-18T21:25:55.911Z,60.67
2018-10-18T21:28:25.813Z,74.25
2018-10-18T21:30:55.744Z,65.70
2018-10-18T21:33:26.708Z,65.55
2018-10-18T21:35:57.426Z,65.15
2018-10-18T21:38:27.605Z,67.10
2018-10-18T21:40:57.596Z,69.93
2018-10-18T21:43:28.105Z,64.30
2018-10-18T21:45:59.765Z,69.15
2018-10-18T21:48:30.378Z,64.87
2018-10-18T21:51:00.395Z,72.37
2018-10-18T21:53:30.263Z,71.47
2018-10-18T21:56:00.082Z,67.20
2018-10-18T21:58:30.562Z,66.35
2018-10-18T22:01:00.458Z,77.13
2018-10-18T22:03:30.570Z,80.47
2018-10-18T22:06:00.540Z,66.40
2018-10-18T22:08:30.481Z,57.23
2018-10-18T22:11:00.425Z,64.50
2018-10-18T22:13:31.530Z,62.83
2018-10-18T22:16:01.648Z,66.17
2018-10-18T22:18:32.626Z,70.25
2018-10-18T22:21:02.626Z,66.07
2018-10-18T22:23:32.636Z,67.15
2018-10-18T22:26:03.631Z,73.65
2018-10-18T22:28:34.522Z,69.70
2018-10-18T22:31:06.188Z,63.52
2018-10-18T22:33:36.793Z,75.24
2018-10-18T22:36:07.786Z,75.22
2018-10-18T22:38:38.610Z,73.65
2018-10-18T22:41:10.822Z,71.90
2018-10-18T22:43:40.837Z,70.03
2018-10-18T22:46:11.953Z,67.72
2018-10-18T22:48:42.871Z,72.35
2018-10-18T22:51:13.848Z,73.90
2018-10-18T22:53:44.739Z,66.50
2018-10-18T22:56:16.081Z,69.27
2018-10-18T22:58:46.665Z,68.75
2018-10-18T23:01:18.023Z,65.80
2018-10-18T23:03:48.674Z,64.62
2018-10-18T23:06:20.068Z,64.90
2018-10-18T23:08:50.622Z,67.30
2018-10-18T23:11:21.515Z,66.62
2018-10-18T23:13:52.397Z,75.47
2018-10-18T23:16:23.779Z,72.04
2018-10-18T23:18:54.652Z,68.62
2018-10-18T23:21:25.598Z,68.52
2018-10-18T23:23:56.479Z,72.12
2018-10-18T23:26:27.809Z,68.54
2018-10-18T23:28:59.712Z,72.40
2018-10-18T23:31:29.625Z,72.10
2018-10-18T23:34:00.478Z,68.65
2018-10-18T23:36:31.563Z,74.70
2018-10-18T23:39:03.815Z,71.80
2018-10-18T23:41:34.381Z,69.70
2018-10-18T23:44:04.593Z,77.30
2018-10-18T23:46:35.608Z,70.20
2018-10-18T23:49:07.019Z,77.80
2018-10-18T23:51:37.718Z,72.70
2018-10-18T23:54:08.546Z,71.90
2018-10-18T23:56:39.513Z,74.82
2018-10-18T23:59:10.797Z,74.60
